Kezdőlap
METAR-TAF:

METAR-TAF

Repülőterek :

Saint-Brieuc, Franciaország

földrajzi szélesség: 48-32N, földrajzi hosszúság: 002-51W, magasság: 138 m

Jelenlegi meteorológiai megfigyelések

A jelentés 44 perccel ezelõtt készült, 18:30 UTC
Nyugat-délnyugati szél 10 kt, dél-délnyugati és nyugati között változik
Hőmérséklet 11°C
Páratartalom 94%
Légköri nyomás 1029 hPa
Látótávolság 10 km, vagy több
Borult 900 lábon

METAR: LFRT 221830Z AUTO 24010KT 210V270 9999 OVC009 11/10 Q1029

Idő: 20:14 (19:14 UTC)


TAF: hiányzik

Meteorológiai megfigyelések és előrejelzések több, mint 4000 repülőtéren (METAR és TAF jelentéseket).

A térképen piros és sárga pontok jelzik az elérhető meteorológiai állomásokat.

Mozgassa az egeret a pont fölött, hogy megjelenjen az állomás neve.

Azután kattintson az időjárási megfigyelések és előrejelzések megtekintéséhez.

A térkép megváltoztatása: kattintson a fekete keresztel jelölt zöld gombra ráközelítéshez, a vonallal jelölt zöld gombra távolításhoz, vagy a zöld nyilakra a szomszédos térképek eléréséhez.


METAR-TAF: